createdAt,value
2023-12-21T00:01:37.755Z,97243.38
2023-12-21T00:04:07.984Z,97240.72
2023-12-21T00:06:36.672Z,97226.16
2023-12-21T00:09:07.805Z,97230.97
2023-12-21T00:11:36.574Z,97215.97
2023-12-21T00:14:05.048Z,97223.44
2023-12-21T00:16:33.871Z,97226.41
2023-12-21T00:19:03.777Z,97217.94
2023-12-21T00:21:32.580Z,97224.91
2023-12-21T00:24:00.964Z,97207.84
2023-12-21T00:26:30.047Z,97203.16
2023-12-21T00:28:58.353Z,97211.41
2023-12-21T00:31:27.102Z,97205.41
2023-12-21T00:33:55.478Z,97186.47
2023-12-21T00:36:25.720Z,97191.28
2023-12-21T00:38:54.038Z,97202.22
2023-12-21T00:41:22.712Z,97192.56
2023-12-21T00:43:51.154Z,97200.22
2023-12-21T00:46:19.874Z,97198.41
2023-12-21T00:48:48.370Z,97196.09
2023-12-21T00:51:16.927Z,97200.38
2023-12-21T00:53:46.823Z,97193.28
2023-12-21T00:56:15.591Z,97195.44
2023-12-21T00:58:43.946Z,97185.72
2023-12-21T01:01:13.291Z,97182.22
2023-12-21T01:03:41.792Z,97178.19
2023-12-21T01:06:12.611Z,97189.31
2023-12-21T01:08:41.075Z,97183.56
2023-12-21T01:11:12.109Z,97179.47
2023-12-21T01:13:40.309Z,97183.53
2023-12-21T01:16:09.091Z,97177.63
2023-12-21T01:18:38.733Z,97181.22
2023-12-21T01:21:07.361Z,97181.22
2023-12-21T01:23:35.688Z,97182.03
2023-12-21T01:26:04.564Z,97183.22
2023-12-21T01:28:34.389Z,97168.28
2023-12-21T01:31:03.220Z,97166.41
2023-12-21T01:33:31.736Z,97167.72
2023-12-21T01:36:00.642Z,97164.31
2023-12-21T01:38:28.925Z,97146.03
2023-12-21T01:40:57.488Z,97155.22
2023-12-21T01:43:25.946Z,97140.44
2023-12-21T01:45:56.284Z,97126.75
2023-12-21T01:48:24.833Z,97139.19
2023-12-21T01:50:53.537Z,97131.94
2023-12-21T01:53:21.832Z,97128.00
2023-12-21T01:55:50.630Z,97122.88
2023-12-21T01:58:19.542Z,97118.19
2023-12-21T02:00:48.184Z,97121.97
2023-12-21T02:03:17.995Z,97116.28
2023-12-21T02:05:46.745Z,97112.44
2023-12-21T02:08:15.059Z,97115.91
2023-12-21T02:10:47.081Z,97097.38
2023-12-21T02:13:17.657Z,97113.41
2023-12-21T02:15:46.214Z,97103.50
2023-12-21T02:18:14.527Z,97105.50
2023-12-21T02:20:45.038Z,97093.53
2023-12-21T02:23:14.378Z,97090.41
2023-12-21T02:25:44.449Z,97087.28
2023-12-21T02:28:12.846Z,97088.53
2023-12-21T02:30:41.623Z,97078.94
2023-12-21T02:33:09.932Z,97077.03
2023-12-21T02:35:38.924Z,97072.06
2023-12-21T02:38:07.965Z,97060.50
2023-12-21T02:40:36.955Z,97048.22
2023-12-21T02:43:06.935Z,97033.16
2023-12-21T02:45:35.493Z,97048.84
2023-12-21T02:48:03.786Z,97043.69
2023-12-21T02:50:32.523Z,97035.34
2023-12-21T02:53:00.756Z,97023.72
2023-12-21T02:55:29.481Z,97039.03
2023-12-21T02:57:58.513Z,96996.63
2023-12-21T03:00:28.582Z,97011.00
2023-12-21T03:02:57.262Z,96983.28
2023-12-21T03:05:25.941Z,97008.13
2023-12-21T03:07:55.417Z,96996.47
2023-12-21T03:10:23.968Z,96994.75
2023-12-21T03:12:52.539Z,96994.59
2023-12-21T03:15:21.111Z,96981.59
2023-12-21T03:17:50.819Z,96998.88
2023-12-21T03:20:19.632Z,96962.72
2023-12-21T03:22:48.185Z,96973.13
2023-12-21T03:25:17.341Z,96956.88
2023-12-21T03:27:45.521Z,96945.78
2023-12-21T03:30:14.710Z,96947.31
2023-12-21T03:32:44.330Z,96943.06
2023-12-21T03:35:14.654Z,96951.22
2023-12-21T03:37:42.902Z,96939.66
2023-12-21T03:40:12.369Z,96937.69
2023-12-21T03:42:40.675Z,96922.94
2023-12-21T03:45:10.352Z,96919.59
2023-12-21T03:47:38.686Z,96920.81
2023-12-21T03:50:08.302Z,96917.66
2023-12-21T03:52:38.176Z,96901.16
2023-12-21T03:55:07.886Z,96907.25
2023-12-21T03:57:36.152Z,96900.16
2023-12-21T04:00:05.260Z,96900.88
2023-12-21T04:02:36.173Z,96897.22
2023-12-21T04:05:05.042Z,96881.00
2023-12-21T04:07:33.618Z,96875.88
2023-12-21T04:10:03.714Z,96874.75
2023-12-21T04:12:34.854Z,96855.91
2023-12-21T04:15:03.506Z,96857.16
2023-12-21T04:17:32.115Z,96870.09
2023-12-21T04:20:00.754Z,96862.38
2023-12-21T04:22:29.050Z,96847.28
2023-12-21T04:24:57.689Z,96858.22
2023-12-21T04:27:29.864Z,96835.75
2023-12-21T04:29:58.514Z,96833.84
2023-12-21T04:32:26.964Z,96820.50
2023-12-21T04:34:55.677Z,96830.47
2023-12-21T04:37:25.461Z,96835.38
2023-12-21T04:39:53.978Z,96824.47
2023-12-21T04:42:22.150Z,96809.63
2023-12-21T04:44:52.100Z,96810.97
2023-12-21T04:47:24.137Z,96798.72
2023-12-21T04:49:53.428Z,96793.72
2023-12-21T04:52:22.201Z,96783.94
2023-12-21T04:54:50.789Z,96775.50
2023-12-21T04:57:21.237Z,96777.53
2023-12-21T04:59:51.910Z,96779.56
2023-12-21T05:02:20.201Z,96779.91
2023-12-21T05:04:49.143Z,96749.53
2023-12-21T05:07:17.712Z,96765.31
2023-12-21T05:09:46.351Z,96762.41
2023-12-21T05:12:14.811Z,96754.63
2023-12-21T05:14:43.559Z,96752.25
2023-12-21T05:17:13.153Z,96758.19
2023-12-21T05:19:43.847Z,96746.09
2023-12-21T05:22:12.173Z,96758.19
2023-12-21T05:24:41.184Z,96746.53
2023-12-21T05:27:09.651Z,96745.00
2023-12-21T05:29:38.379Z,96753.66
2023-12-21T05:32:07.460Z,96741.97
2023-12-21T05:34:41.184Z,96750.91
2023-12-21T05:37:11.312Z,96744.75
2023-12-21T05:39:40.589Z,96738.97
2023-12-21T05:42:08.799Z,96722.78
2023-12-21T05:44:37.503Z,96733.69
2023-12-21T05:47:06.010Z,96734.28
2023-12-21T05:49:34.754Z,96716.34
2023-12-21T05:52:04.520Z,96725.75
2023-12-21T05:54:33.221Z,96714.31
2023-12-21T05:57:03.379Z,96714.16
2023-12-21T05:59:31.905Z,96697.44
2023-12-21T06:02:00.706Z,96721.91
2023-12-21T06:04:29.371Z,96706.03
2023-12-21T06:06:57.965Z,96717.09
2023-12-21T06:09:28.528Z,96706.13
2023-12-21T06:11:57.002Z,96706.53
2023-12-21T06:14:25.546Z,96713.53
2023-12-21T06:16:54.099Z,96693.63
2023-12-21T06:19:22.743Z,96706.22
2023-12-21T06:21:51.197Z,96720.75
2023-12-21T06:24:19.719Z,96709.38
2023-12-21T06:26:49.577Z,96691.13
2023-12-21T06:29:18.369Z,96714.09
2023-12-21T06:31:47.213Z,96698.06
2023-12-21T06:34:20.889Z,96700.19
2023-12-21T06:36:49.797Z,96689.31
2023-12-21T06:39:19.857Z,96704.94
2023-12-21T06:41:49.888Z,96684.66
2023-12-21T06:44:19.168Z,96710.09
2023-12-21T06:46:48.825Z,96696.81
2023-12-21T06:49:18.206Z,96680.88
2023-12-21T06:51:47.106Z,96681.94
2023-12-21T06:54:16.736Z,96700.25
2023-12-21T06:56:45.046Z,96697.69
2023-12-21T06:59:15.292Z,96709.22
2023-12-21T07:01:43.699Z,96708.66
2023-12-21T07:04:13.127Z,96702.06
2023-12-21T07:06:41.478Z,96678.75
2023-12-21T07:09:10.610Z,96702.31
2023-12-21T07:11:38.765Z,96699.66
2023-12-21T07:14:07.274Z,96670.91
2023-12-21T07:16:37.382Z,96691.34
2023-12-21T07:19:07.633Z,96697.44
2023-12-21T07:21:36.015Z,96682.63
2023-12-21T07:24:04.797Z,96675.91
2023-12-21T07:26:33.996Z,96684.38
2023-12-21T07:29:03.270Z,96685.25
2023-12-21T07:31:31.577Z,96663.81
2023-12-21T07:34:02.167Z,96684.44
2023-12-21T07:36:30.512Z,96676.78
2023-12-21T07:38:59.306Z,96661.41
2023-12-21T07:41:27.579Z,96684.09
2023-12-21T07:43:56.643Z,96686.50
2023-12-21T07:46:25.366Z,96666.56
2023-12-21T07:48:54.339Z,96668.41
2023-12-21T07:51:24.113Z,96676.69
2023-12-21T07:53:55.606Z,96672.63
2023-12-21T07:56:24.084Z,96673.06
2023-12-21T07:58:52.724Z,96652.13
2023-12-21T08:01:21.377Z,96667.06
2023-12-21T08:03:50.209Z,96644.59
2023-12-21T08:06:24.676Z,96655.63
2023-12-21T08:08:57.949Z,96658.00
2023-12-21T08:11:30.177Z,96648.41
2023-12-21T08:13:59.797Z,96638.16
2023-12-21T08:16:28.241Z,96636.84
2023-12-21T08:18:57.484Z,96624.16
2023-12-21T08:21:28.415Z,96638.38
2023-12-21T08:23:59.357Z,96629.66
2023-12-21T08:26:27.732Z,96631.38
2023-12-21T08:28:56.593Z,96609.88
2023-12-21T08:31:28.833Z,96622.25
2023-12-21T08:33:57.743Z,96627.38
2023-12-21T08:36:27.392Z,96622.41
2023-12-21T08:38:56.188Z,96614.75
2023-12-21T08:41:26.221Z,96593.03
2023-12-21T08:43:56.303Z,96590.72
2023-12-21T08:46:25.444Z,96581.72
2023-12-21T08:48:54.537Z,96568.91
2023-12-21T08:51:23.697Z,96559.16
2023-12-21T08:53:53.678Z,96561.31
2023-12-21T08:56:22.524Z,96549.00
2023-12-21T08:58:53.968Z,96550.28
2023-12-21T09:01:22.738Z,96527.91
2023-12-21T09:03:51.665Z,96525.38
2023-12-21T09:06:20.066Z,96508.50
2023-12-21T09:08:49.471Z,96497.34
2023-12-21T09:11:20.345Z,96494.81
2023-12-21T09:13:48.911Z,96491.94
2023-12-21T09:16:18.704Z,96467.97
2023-12-21T09:18:47.459Z,96454.41
2023-12-21T09:21:15.993Z,96438.94
2023-12-21T09:23:44.602Z,96447.22
2023-12-21T09:26:13.501Z,96442.03
2023-12-21T09:28:43.686Z,96423.56
2023-12-21T09:31:12.247Z,96431.13
2023-12-21T09:33:41.585Z,96393.81
2023-12-21T09:36:10.843Z,96428.84
2023-12-21T09:38:39.522Z,96418.28
2023-12-21T09:41:08.598Z,96410.88
2023-12-21T09:43:40.537Z,96398.78
2023-12-21T09:46:10.679Z,96415.88
2023-12-21T09:48:40.464Z,96413.09
2023-12-21T09:51:10.349Z,96390.44
2023-12-21T09:53:39.696Z,96392.31
2023-12-21T09:56:09.273Z,96392.06
2023-12-21T09:58:37.786Z,96400.84
2023-12-21T10:01:06.368Z,96383.38
2023-12-21T10:03:36.573Z,96357.53
2023-12-21T10:06:05.722Z,96363.97
2023-12-21T10:08:35.034Z,96351.56
2023-12-21T10:11:07.371Z,96364.69
2023-12-21T10:13:36.662Z,96340.34
2023-12-21T10:16:05.791Z,96340.28
2023-12-21T10:18:36.304Z,96317.84
2023-12-21T10:21:06.367Z,96322.34
2023-12-21T10:23:34.974Z,96285.47
2023-12-21T10:26:03.369Z,96294.97
2023-12-21T10:28:32.022Z,96301.53
2023-12-21T10:31:02.374Z,96306.28
2023-12-21T10:33:32.385Z,96271.00
2023-12-21T10:36:00.956Z,96273.22
2023-12-21T10:38:32.142Z,96260.47
2023-12-21T10:41:07.075Z,96243.84
2023-12-21T10:43:37.100Z,96242.13
2023-12-21T10:46:05.962Z,96258.69
2023-12-21T10:48:35.339Z,96243.09
2023-12-21T10:51:04.015Z,96238.78
2023-12-21T10:53:35.189Z,96235.91
2023-12-21T10:56:04.378Z,96220.09
2023-12-21T10:58:33.381Z,96222.50
2023-12-21T11:01:03.724Z,96205.16
2023-12-21T11:03:32.542Z,96215.91
2023-12-21T11:06:02.175Z,96198.13
2023-12-21T11:08:31.632Z,96193.72
2023-12-21T11:11:01.310Z,96178.25
2023-12-21T11:13:30.032Z,96177.50
2023-12-21T11:15:59.420Z,96177.34
2023-12-21T11:18:28.419Z,96182.22
2023-12-21T11:21:00.136Z,96184.59
2023-12-21T11:23:29.109Z,96160.38
2023-12-21T11:25:58.413Z,96158.84
2023-12-21T11:28:32.078Z,96144.34
2023-12-21T11:31:00.708Z,96132.47
2023-12-21T11:33:31.404Z,96132.19
2023-12-21T11:36:00.220Z,96136.56
2023-12-21T11:38:43.694Z,96120.06
2023-12-21T11:41:11.975Z,96103.78
2023-12-21T11:43:43.240Z,96099.59
2023-12-21T11:46:11.673Z,96109.31
2023-12-21T11:48:40.681Z,96084.63
2023-12-21T11:51:08.899Z,96081.88
2023-12-21T11:53:46.417Z,96037.56
2023-12-21T11:56:16.004Z,96072.97
2023-12-21T11:58:50.701Z,96070.09
2023-12-21T12:01:27.540Z,96063.34
2023-12-21T12:03:56.489Z,96055.88
2023-12-21T12:06:27.175Z,96071.75
2023-12-21T12:08:55.856Z,96034.47
2023-12-21T12:11:24.388Z,96038.97
2023-12-21T12:13:54.549Z,96031.72
2023-12-21T12:16:22.904Z,96018.59
2023-12-21T12:18:51.967Z,96009.59
2023-12-21T12:21:20.984Z,95997.53
2023-12-21T12:23:49.746Z,96001.13
2023-12-21T12:26:18.632Z,95986.03
2023-12-21T12:28:50.822Z,95985.84
2023-12-21T12:31:21.111Z,95975.09
2023-12-21T12:33:50.160Z,95939.00
2023-12-21T12:36:20.593Z,95956.81
2023-12-21T12:38:51.013Z,95934.38
2023-12-21T12:41:23.185Z,95930.44
2023-12-21T12:43:53.221Z,95938.09
2023-12-21T12:46:23.276Z,95906.50
2023-12-21T12:48:52.885Z,95914.78
2023-12-21T12:51:23.502Z,95915.84
2023-12-21T12:53:53.477Z,95920.34
2023-12-21T12:56:22.177Z,95921.50
2023-12-21T12:58:58.325Z,95910.03
2023-12-21T13:01:30.656Z,95908.09
2023-12-21T13:04:00.382Z,95896.78
2023-12-21T13:06:30.220Z,95888.69
2023-12-21T13:08:59.417Z,95888.03
2023-12-21T13:11:28.609Z,95880.16
2023-12-21T13:13:57.827Z,95884.34
2023-12-21T13:16:26.327Z,95865.38
2023-12-21T13:18:58.243Z,95878.81
2023-12-21T13:21:26.793Z,95856.84
2023-12-21T13:23:55.344Z,95851.91
2023-12-21T13:26:23.674Z,95847.06
2023-12-21T13:28:56.119Z,95848.69
2023-12-21T13:31:25.956Z,95830.25
2023-12-21T13:33:56.246Z,95824.72
2023-12-21T13:36:25.868Z,95815.19
2023-12-21T13:38:55.921Z,95795.22
2023-12-21T13:41:24.906Z,95786.94
2023-12-21T13:43:54.035Z,95788.38
2023-12-21T13:46:23.540Z,95788.69
2023-12-21T13:48:53.181Z,95773.91
2023-12-21T13:51:23.290Z,95756.28
2023-12-21T13:53:52.473Z,95757.72
2023-12-21T13:56:21.485Z,95752.59
2023-12-21T13:58:50.579Z,95748.31
2023-12-21T14:01:24.003Z,95738.03
2023-12-21T14:03:52.810Z,95742.81
2023-12-21T14:06:22.833Z,95712.81
2023-12-21T14:08:51.703Z,95725.38
2023-12-21T14:11:20.233Z,95718.59
2023-12-21T14:13:48.860Z,95704.03
2023-12-21T14:16:17.325Z,95714.63
2023-12-21T14:18:46.098Z,95693.78
2023-12-21T14:21:15.516Z,95690.50
2023-12-21T14:23:45.831Z,95652.66
2023-12-21T14:26:15.068Z,95679.91
2023-12-21T14:28:51.157Z,95663.75
2023-12-21T14:31:25.032Z,95633.72
2023-12-21T14:33:53.775Z,95645.94
2023-12-21T14:36:22.136Z,95633.69
2023-12-21T14:38:54.259Z,95636.88
2023-12-21T14:41:22.908Z,95629.00
2023-12-21T14:43:52.025Z,95621.91
2023-12-21T14:46:20.533Z,95613.19
2023-12-21T14:48:49.264Z,95611.63
2023-12-21T14:51:19.488Z,95613.91
2023-12-21T14:53:48.161Z,95601.72
2023-12-21T14:56:17.814Z,95578.38
2023-12-21T14:58:46.695Z,95587.03
2023-12-21T15:01:14.982Z,95583.19
2023-12-21T15:03:43.813Z,95591.44
2023-12-21T15:06:14.163Z,95566.84
2023-12-21T15:08:42.888Z,95526.28
2023-12-21T15:11:11.433Z,95551.91
2023-12-21T15:13:43.024Z,95543.94
2023-12-21T15:16:12.028Z,95505.69
2023-12-21T15:18:41.278Z,95517.97
2023-12-21T15:21:10.000Z,95538.53
2023-12-21T15:23:38.836Z,95516.78
2023-12-21T15:26:06.987Z,95505.72
2023-12-21T15:28:36.024Z,95499.34
2023-12-21T15:31:07.176Z,95484.91
2023-12-21T15:33:36.057Z,95477.84
2023-12-21T15:36:04.645Z,95473.16
2023-12-21T15:38:33.439Z,95467.63
2023-12-21T15:41:01.899Z,95466.03
2023-12-21T15:43:31.896Z,95460.97
2023-12-21T15:46:00.369Z,95446.75
2023-12-21T15:48:30.417Z,95446.25
2023-12-21T15:50:58.928Z,95447.25
2023-12-21T15:53:28.087Z,95431.34
2023-12-21T15:55:56.716Z,95429.38
2023-12-21T15:58:25.759Z,95414.59
2023-12-21T16:00:54.167Z,95394.94
2023-12-21T16:03:23.676Z,95401.19
2023-12-21T16:05:53.706Z,95389.88
2023-12-21T16:08:22.260Z,95380.50
2023-12-21T16:10:50.902Z,95379.09
2023-12-21T16:13:21.206Z,95362.88
2023-12-21T16:15:51.246Z,95344.03
2023-12-21T16:18:21.827Z,95344.25
2023-12-21T16:20:51.813Z,95342.00
2023-12-21T16:23:21.872Z,95335.91
2023-12-21T16:25:50.381Z,95326.78
2023-12-21T16:28:19.220Z,95323.47
2023-12-21T16:30:48.575Z,95297.78
2023-12-21T16:33:19.848Z,95296.72
2023-12-21T16:35:48.792Z,95272.16
2023-12-21T16:38:18.652Z,95284.28
2023-12-21T16:40:48.716Z,95271.41
2023-12-21T16:43:17.499Z,95272.81
2023-12-21T16:45:46.025Z,95251.56
2023-12-21T16:48:14.824Z,95240.75
2023-12-21T16:50:50.555Z,95268.88
2023-12-21T16:53:19.313Z,95256.84
2023-12-21T16:55:49.303Z,95241.81
2023-12-21T16:58:18.484Z,95252.69
2023-12-21T17:00:47.090Z,95255.72
2023-12-21T17:03:15.705Z,95259.28
2023-12-21T17:05:44.196Z,95253.88
2023-12-21T17:08:12.852Z,95240.44
2023-12-21T17:10:42.374Z,95239.91
2023-12-21T17:13:12.469Z,95238.94
2023-12-21T17:15:44.138Z,95221.25
2023-12-21T17:18:13.018Z,95235.44
2023-12-21T17:20:41.578Z,95210.91
2023-12-21T17:23:13.025Z,95219.50
2023-12-21T17:25:42.856Z,95189.84
2023-12-21T17:28:13.123Z,95196.09
2023-12-21T17:30:41.597Z,95193.22
2023-12-21T17:33:11.169Z,95182.22
2023-12-21T17:35:39.818Z,95167.28
2023-12-21T17:38:08.584Z,95183.34
2023-12-21T17:40:37.167Z,95179.78
2023-12-21T17:43:06.137Z,95176.06
2023-12-21T17:45:35.776Z,95166.56
2023-12-21T17:48:05.925Z,95168.59
2023-12-21T17:50:34.847Z,95134.28
2023-12-21T17:53:03.516Z,95164.59
2023-12-21T17:55:32.065Z,95141.78
2023-12-21T17:58:00.906Z,95156.56
2023-12-21T18:00:30.172Z,95140.50
2023-12-21T18:03:02.314Z,95135.44
2023-12-21T18:05:30.882Z,95150.09
2023-12-21T18:07:59.883Z,95158.31
2023-12-21T18:10:28.225Z,95148.53
2023-12-21T18:12:57.778Z,95135.94
2023-12-21T18:15:26.110Z,95129.47
2023-12-21T18:17:55.104Z,95097.25
2023-12-21T18:20:25.184Z,95084.47
2023-12-21T18:22:53.937Z,95092.88
2023-12-21T18:25:22.331Z,95102.78
2023-12-21T18:27:51.253Z,95100.88
2023-12-21T18:30:19.813Z,95084.38
2023-12-21T18:32:48.681Z,95095.59
2023-12-21T18:35:17.145Z,95085.28
2023-12-21T18:37:47.552Z,95092.56
2023-12-21T18:40:16.584Z,95091.03
2023-12-21T18:42:45.626Z,95049.53
2023-12-21T18:45:15.245Z,95068.00
2023-12-21T18:47:44.341Z,95042.25
2023-12-21T18:50:13.472Z,95054.53
2023-12-21T18:52:42.396Z,95028.59
2023-12-21T18:55:12.493Z,95044.25
2023-12-21T18:57:41.813Z,95047.75
2023-12-21T19:00:11.628Z,95032.56
2023-12-21T19:02:40.572Z,95026.34
2023-12-21T19:05:09.697Z,95015.53
2023-12-21T19:07:39.458Z,95000.75
2023-12-21T19:10:10.398Z,94995.47
2023-12-21T19:12:43.253Z,94985.38
2023-12-21T19:15:11.855Z,95022.66
2023-12-21T19:17:41.098Z,95024.84
2023-12-21T19:20:09.869Z,95012.69
2023-12-21T19:22:38.961Z,94994.38
2023-12-21T19:25:08.791Z,94995.44
2023-12-21T19:27:39.262Z,95004.84
2023-12-21T19:30:10.190Z,94994.75
2023-12-21T19:32:38.785Z,95004.81
2023-12-21T19:35:07.541Z,95000.50
2023-12-21T19:37:36.171Z,95013.00
2023-12-21T19:40:04.980Z,95014.44
2023-12-21T19:42:33.666Z,94998.25
2023-12-21T19:45:03.170Z,94983.81
2023-12-21T19:47:33.286Z,94991.53
2023-12-21T19:50:04.378Z,94991.84
2023-12-21T19:52:33.291Z,94999.16
2023-12-21T19:55:01.618Z,94994.19
2023-12-21T19:57:30.800Z,94975.88
2023-12-21T19:59:59.277Z,94972.91
2023-12-21T20:02:27.926Z,94971.69
2023-12-21T20:04:58.045Z,94973.97
2023-12-21T20:07:27.565Z,94975.75
2023-12-21T20:09:56.228Z,94978.56
2023-12-21T20:12:25.390Z,94979.44
2023-12-21T20:14:53.812Z,95002.59
2023-12-21T20:17:22.832Z,94983.81
2023-12-21T20:19:51.354Z,94966.00
2023-12-21T20:22:21.554Z,95004.88
2023-12-21T20:24:50.082Z,95016.75
2023-12-21T20:27:19.120Z,95007.72
2023-12-21T20:29:47.458Z,95008.03
2023-12-21T20:32:16.115Z,95024.59
2023-12-21T20:34:45.157Z,95032.38
2023-12-21T20:37:14.182Z,95025.91
2023-12-21T20:39:44.090Z,95021.91
2023-12-21T20:42:12.781Z,95032.72
2023-12-21T20:44:43.607Z,95023.63
2023-12-21T20:47:12.465Z,95040.34
2023-12-21T20:49:43.594Z,95027.69
2023-12-21T20:52:13.531Z,95018.66
2023-12-21T20:54:43.529Z,95006.88
2023-12-21T20:57:13.680Z,94992.63
2023-12-21T20:59:42.834Z,95003.84
2023-12-21T21:02:11.793Z,95023.44
2023-12-21T21:04:40.255Z,95007.72
2023-12-21T21:07:09.286Z,95001.19
2023-12-21T21:09:37.747Z,94985.84
2023-12-21T21:12:11.374Z,94969.50
2023-12-21T21:14:39.958Z,94971.25
2023-12-21T21:17:08.466Z,94976.59
2023-12-21T21:19:38.244Z,94992.63
2023-12-21T21:22:07.016Z,94990.25
2023-12-21T21:24:35.260Z,95007.84
2023-12-21T21:27:04.225Z,95000.19
2023-12-21T21:29:35.527Z,95007.31
2023-12-21T21:32:04.325Z,95012.88
2023-12-21T21:34:32.599Z,95003.34
2023-12-21T21:37:01.243Z,95007.59
2023-12-21T21:39:29.589Z,95014.69
2023-12-21T21:41:58.537Z,95032.06
2023-12-21T21:44:30.965Z,95044.09
2023-12-21T21:47:01.165Z,95044.84
2023-12-21T21:49:29.744Z,95049.84
2023-12-21T21:51:58.475Z,95057.38
2023-12-21T21:54:28.262Z,95038.22
2023-12-21T21:56:57.967Z,95060.66
2023-12-21T21:59:26.285Z,95057.53
2023-12-21T22:01:55.054Z,95079.44
2023-12-21T22:04:25.251Z,95069.66
2023-12-21T22:06:54.076Z,95051.69
2023-12-21T22:09:22.602Z,95049.97
2023-12-21T22:11:51.498Z,95069.47
2023-12-21T22:14:20.144Z,95080.25
2023-12-21T22:16:51.402Z,95070.78
2023-12-21T22:19:20.021Z,95047.34
2023-12-21T22:21:50.026Z,95085.25
2023-12-21T22:24:19.317Z,95082.50
2023-12-21T22:26:47.961Z,95088.47
2023-12-21T22:29:16.464Z,95082.66
2023-12-21T22:31:45.122Z,95070.00
2023-12-21T22:34:13.633Z,95068.06
2023-12-21T22:36:42.397Z,95078.00
2023-12-21T22:39:12.251Z,95069.03
2023-12-21T22:41:40.982Z,95085.03
2023-12-21T22:44:10.037Z,95081.41
2023-12-21T22:46:39.002Z,95101.69
2023-12-21T22:49:07.511Z,95103.59
2023-12-21T22:51:36.268Z,95102.84
2023-12-21T22:54:05.620Z,95107.59
2023-12-21T22:56:35.693Z,95112.13
2023-12-21T22:59:04.151Z,95116.63
2023-12-21T23:01:32.974Z,95099.13
2023-12-21T23:04:02.218Z,95103.31
2023-12-21T23:06:30.992Z,95126.31
2023-12-21T23:08:59.994Z,95122.88
2023-12-21T23:11:31.679Z,95138.34
2023-12-21T23:14:01.673Z,95143.53
2023-12-21T23:16:33.567Z,95121.75
2023-12-21T23:19:03.367Z,95144.81
2023-12-21T23:21:32.077Z,95137.72
2023-12-21T23:24:00.667Z,95138.78
2023-12-21T23:26:29.157Z,95129.97
2023-12-21T23:28:57.664Z,95124.91
2023-12-21T23:31:30.517Z,95121.88
2023-12-21T23:33:59.293Z,95140.31
2023-12-21T23:36:28.375Z,95128.41
2023-12-21T23:38:57.097Z,95139.47
2023-12-21T23:41:25.923Z,95135.59
2023-12-21T23:43:54.567Z,95125.59
2023-12-21T23:46:23.435Z,95157.28
2023-12-21T23:48:53.073Z,95165.88
2023-12-21T23:51:22.068Z,95169.41
2023-12-21T23:53:50.361Z,95165.19
2023-12-21T23:56:19.225Z,95161.38
2023-12-21T23:58:47.559Z,95158.47
